Time;durP1;ratioP1;P1;durP2;ratioP2;P2;SDS_P1;SDS_P2;PMS_P1;PMS_P2;Temp;Humidity;BMP_temperature;BMP_pressure;BME280_temperature;BME280_humidity;BME280_pressure;Samples;Min_cycle;Max_cycle;Signal;HPM_P1;HPM_P2
2022/08/07 00:01:04;;;;;;;10.90;8.90;;;;;;;24.20;53.86;100270.65;117079;1185;23550;-60
2022/08/07 00:03:51;;;;;;;10.80;8.60;;;;;;;24.18;53.92;100270.39;116999;1185;22620;-60
2022/08/07 00:06:21;;;;;;;11.00;8.60;;;;;;;24.17;54.04;100270.27;117055;1189;21846;-60
2022/08/07 00:08:58;;;;;;;10.10;8.80;;;;;;;24.16;53.95;100268.73;116963;1188;21891;-60
2022/08/07 00:11:42;;;;;;;11.70;8.20;;;;;;;24.14;53.95;100268.91;116858;1188;21863;-69
2022/08/07 00:14:23;;;;;;;10.60;8.60;;;;;;;24.12;54.10;100269.05;117013;1188;21961;-60
2022/08/07 00:16:57;;;;;;;9.70;8.40;;;;;;;24.11;54.08;100264.08;117007;1189;23557;-60
2022/08/07 00:19:24;;;;;;;10.20;8.80;;;;;;;24.09;53.98;100268.68;117071;1186;23569;-60
2022/08/07 00:22:11;;;;;;;9.60;8.70;;;;;;;24.07;53.98;100270.28;117046;1185;23001;-69
2022/08/07 00:24:50;;;;;;;10.20;8.50;;;;;;;24.04;54.16;100272.61;117023;1188;22938;-69
2022/08/07 00:27:17;;;;;;;9.80;8.80;;;;;;;24.02;54.10;100274.23;117064;1183;22925;-60
2022/08/07 00:29:48;;;;;;;11.50;8.70;;;;;;;24.00;54.21;100273.80;117111;1186;23512;-69
2022/08/07 00:32:15;;;;;;;9.10;8.20;;;;;;;23.94;54.21;100274.58;117013;1188;23635;-60
2022/08/07 00:34:48;;;;;;;10.70;9.00;;;;;;;23.87;54.30;100272.48;116819;1189;22144;-68
2022/08/07 00:37:16;;;;;;;11.10;9.50;;;;;;;23.88;54.28;100272.61;117098;1186;23657;-69
2022/08/07 00:39:43;;;;;;;10.00;9.10;;;;;;;23.82;54.34;100277.73;116944;1185;23553;-60
2022/08/07 00:42:20;;;;;;;11.30;9.00;;;;;;;23.78;54.32;100276.55;116917;1188;21868;-69
2022/08/07 00:44:54;;;;;;;11.20;9.50;;;;;;;23.71;54.49;100278.67;117032;1189;22244;-69
2022/08/07 00:47:21;;;;;;;9.70;8.70;;;;;;;23.66;54.69;100275.29;117031;1187;23018;-60
2022/08/07 00:50:08;;;;;;;11.10;8.80;;;;;;;23.62;54.65;100275.72;117033;1185;22815;-60
2022/08/07 00:52:55;;;;;;;11.00;9.10;;;;;;;23.61;54.62;100275.05;117028;1188;22927;-69
2022/08/07 00:55:23;;;;;;;10.10;9.20;;;;;;;23.60;54.68;100277.45;116976;1188;23602;-69
2022/08/07 00:58:10;;;;;;;10.70;9.60;;;;;;;23.53;54.84;100278.84;116925;1185;23310;-70
2022/08/07 01:00:37;;;;;;;10.60;8.70;;;;;;;23.52;55.01;100278.52;117070;1186;23444;-69
2022/08/07 01:03:19;;;;;;;10.80;8.90;;;;;;;23.54;54.86;100281.42;116860;1185;21856;-61
2022/08/07 01:06:08;;;;;;;10.60;9.60;;;;;;;23.52;54.91;100279.40;116991;1186;21878;-69
2022/08/07 01:08:37;;;;;;;13.30;9.70;;;;;;;23.51;54.90;100276.08;117088;1186;22918;-69
2022/08/07 01:11:17;;;;;;;11.50;10.30;;;;;;;23.49;55.15;100274.64;116775;1190;21883;-69
2022/08/07 01:14:04;;;;;;;10.40;9.30;;;;;;;23.44;55.00;100274.77;116885;1188;23007;-60
2022/08/07 01:16:30;;;;;;;14.70;10.60;;;;;;;23.41;55.24;100273.38;116981;1186;23478;-69
2022/08/07 01:18:58;;;;;;;11.00;9.80;;;;;;;23.36;55.19;100276.02;116988;1186;22922;-60
2022/08/07 01:21:26;;;;;;;12.30;9.70;;;;;;;23.33;55.21;100276.03;117083;1188;22922;-69
2022/08/07 01:23:54;;;;;;;11.10;10.10;;;;;;;23.32;55.38;100267.55;117159;1184;23459;-69
2022/08/07 01:26:21;;;;;;;10.80;9.70;;;;;;;23.31;55.38;100272.25;116925;1186;22928;-70
2022/08/07 01:28:52;;;;;;;10.70;9.60;;;;;;;23.29;55.33;100271.47;116944;1188;21878;-68
2022/08/07 01:31:19;;;;;;;10.80;9.50;;;;;;;23.28;55.51;100270.45;116865;1189;23566;-70
2022/08/07 01:33:48;;;;;;;11.40;10.30;;;;;;;23.27;55.34;100267.87;116989;1188;22949;-69
2022/08/07 01:36:24;;;;;;;13.00;10.40;;;;;;;23.26;55.51;100268.83;116870;1188;23403;-69
2022/08/07 01:38:59;;;;;;;11.10;10.10;;;;;;;23.23;55.52;100265.77;116794;1188;22921;-60
2022/08/07 01:41:30;;;;;;;14.10;10.60;;;;;;;23.19;55.56;100265.50;116985;1190;21923;-60
2022/08/07 01:43:58;;;;;;;13.30;10.50;;;;;;;23.07;55.70;100266.27;117063;1187;21867;-69
2022/08/07 01:46:27;;;;;;;12.30;11.00;;;;;;;23.00;55.90;100266.55;117034;1188;21865;-69
2022/08/07 01:48:56;;;;;;;11.70;10.50;;;;;;;22.96;56.14;100266.11;116874;1186;21861;-60
2022/08/07 01:51:25;;;;;;;12.10;10.90;;;;;;;22.94;56.14;100264.63;117125;1188;21857;-69
2022/08/07 01:54:13;;;;;;;11.60;10.50;;;;;;;22.91;56.11;100268.07;116999;1186;22622;-60
2022/08/07 01:57:05;;;;;;;13.60;10.50;;;;;;;22.88;56.14;100270.38;117018;1188;21865;-69
2022/08/07 01:59:52;;;;;;;13.50;11.10;;;;;;;22.85;56.15;100270.43;117003;1188;22046;-60
2022/08/07 02:02:26;;;;;;;12.90;11.60;;;;;;;22.82;56.38;100270.73;116980;1188;21892;-69
2022/08/07 02:05:16;;;;;;;13.50;12.10;;;;;;;22.79;56.58;100269.52;117016;1186;21824;-69
2022/08/07 02:08:09;;;;;;;12.70;11.40;;;;;;;22.76;56.45;100268.98;116984;1188;21921;-60
2022/08/07 02:10:39;;;;;;;12.10;10.90;;;;;;;22.74;56.60;100269.30;117003;1185;23088;-60
2022/08/07 02:13:08;;;;;;;12.40;11.20;;;;;;;22.73;56.74;100268.48;116873;1190;21862;-69
2022/08/07 02:15:35;;;;;;;12.80;11.60;;;;;;;22.71;56.85;100266.99;116991;1185;23060;-61
2022/08/07 02:18:03;;;;;;;11.70;10.50;;;;;;;22.70;56.90;100272.42;116925;1189;22562;-60
2022/08/07 02:20:32;;;;;;;12.60;11.30;;;;;;;22.70;56.95;100272.64;117006;1185;23464;-60
2022/08/07 02:23:02;;;;;;;12.40;11.10;;;;;;;22.69;56.77;100270.68;117094;1188;21858;-69
2022/08/07 02:25:30;;;;;;;12.60;11.30;;;;;;;22.70;56.94;100273.67;117085;1188;21863;-60
2022/08/07 02:28:17;;;;;;;12.20;11.10;;;;;;;22.70;57.05;100276.70;117018;1188;22057;-60
2022/08/07 02:30:53;;;;;;;12.90;11.00;;;;;;;22.72;57.03;100279.60;117034;1184;23658;-69
2022/08/07 02:33:20;;;;;;;12.90;11.60;;;;;;;22.77;56.99;100280.92;117105;1186;21866;-69
2022/08/07 02:35:47;;;;;;;12.70;11.30;;;;;;;22.80;56.88;100279.63;116887;1185;22656;-69
2022/08/07 02:38:35;;;;;;;12.60;11.40;;;;;;;22.81;56.93;100282.48;116951;1186;21971;-69
2022/08/07 02:41:16;;;;;;;11.80;10.70;;;;;;;22.78;56.98;100280.35;117041;1188;22098;-60
2022/08/07 02:43:47;;;;;;;12.60;11.20;;;;;;;22.77;56.83;100285.06;116829;1188;21858;-67
2022/08/07 02:46:15;;;;;;;12.90;11.30;;;;;;;22.75;56.86;100290.02;116964;1186;22928;-59
2022/08/07 02:48:44;;;;;;;12.40;11.10;;;;;;;22.71;56.92;100290.61;117065;1188;23486;-69
2022/08/07 02:51:20;;;;;;;12.20;10.90;;;;;;;22.68;56.98;100295.29;116900;1188;22931;-69
2022/08/07 02:54:08;;;;;;;12.40;11.10;;;;;;;22.68;57.13;100297.94;116990;1186;22945;-70
2022/08/07 02:56:35;;;;;;;11.60;10.50;;;;;;;22.68;57.09;100301.91;117009;1186;22925;-63
2022/08/07 02:59:08;;;;;;;13.10;11.60;;;;;;;22.62;57.15;100300.14;116836;1189;21875;-70
2022/08/07 03:01:37;;;;;;;12.80;10.90;;;;;;;22.60;57.20;100297.55;117094;1188;21899;-60
2022/08/07 03:04:06;;;;;;;11.60;10.40;;;;;;;22.61;57.09;100299.86;117088;1186;23054;-69
2022/08/07 03:06:41;;;;;;;12.90;10.50;;;;;;;22.63;57.07;100298.84;117098;1188;24248;-69
2022/08/07 03:09:12;;;;;;;11.70;10.20;;;;;;;22.60;57.16;100303.16;116976;1185;21981;-59
2022/08/07 03:11:40;;;;;;;12.50;10.90;;;;;;;22.61;57.30;100301.47;117050;1188;21848;-68
2022/08/07 03:14:23;;;;;;;17.50;11.10;;;;;;;22.62;57.39;100302.11;116915;1188;22928;-60
2022/08/07 03:16:50;;;;;;;14.40;10.90;;;;;;;22.63;57.51;100300.11;116853;1189;21854;-60
2022/08/07 03:19:18;;;;;;;12.10;10.20;;;;;;;22.64;57.37;100301.25;116800;1188;22991;-60
2022/08/07 03:21:45;;;;;;;14.20;11.10;;;;;;;22.66;57.53;100300.62;116947;1188;21857;-60
2022/08/07 03:24:16;;;;;;;12.80;10.30;;;;;;;22.67;57.43;100298.95;116931;1188;22934;-67
2022/08/07 03:26:53;;;;;;;16.30;11.10;;;;;;;22.68;57.48;100304.41;116878;1188;22180;-68
2022/08/07 03:29:24;;;;;;;12.30;10.70;;;;;;;22.70;57.62;100305.00;116984;1188;22928;-59
2022/08/07 03:31:53;;;;;;;12.40;11.10;;;;;;;22.73;57.63;100308.34;116983;1189;21856;-60
2022/08/07 03:34:21;;;;;;;13.00;10.40;;;;;;;22.77;57.73;100304.58;116965;1189;22928;-69
2022/08/07 03:36:53;;;;;;;11.50;10.30;;;;;;;22.80;57.72;100307.58;116955;1189;21862;-69
2022/08/07 03:39:20;;;;;;;12.30;10.90;;;;;;;22.84;57.82;100308.20;117074;1185;23509;-59
2022/08/07 03:42:07;;;;;;;12.00;10.10;;;;;;;22.89;57.93;100305.90;116866;1187;22946;-69
2022/08/07 03:44:35;;;;;;;11.10;10.00;;;;;;;22.93;57.96;100306.41;117113;1186;21864;-69
2022/08/07 03:47:02;;;;;;;14.00;11.10;;;;;;;22.98;57.78;100309.63;117530;1186;21780;-60
2022/08/07 03:49:43;;;;;;;11.20;10.10;;;;;;;23.04;57.84;100312.09;118997;1187;21796;-70
2022/08/07 03:52:13;;;;;;;10.40;9.30;;;;;;;23.08;57.65;100304.52;118910;1186;22145;-62
2022/08/07 03:55:01;;;;;;;12.50;8.90;;;;;;;23.18;57.53;100306.69;119038;1187;21797;-66
2022/08/07 03:57:33;;;;;;;10.50;9.50;;;;;;;23.40;57.56;100310.29;118382;1188;21867;-59
2022/08/07 04:00:20;;;;;;;9.90;8.90;;;;;;;23.65;57.38;100305.08;117037;1185;21942;-59
2022/08/07 04:02:55;;;;;;;10.10;9.10;;;;;;;23.82;57.35;100301.89;117052;1187;22154;-66
2022/08/07 04:05:22;;;;;;;13.10;9.30;;;;;;;23.96;57.33;100302.58;116897;1189;23111;-66
2022/08/07 04:08:10;;;;;;;10.70;9.60;;;;;;;24.10;57.30;100305.19;116792;1188;23004;-65
2022/08/07 04:10:38;;;;;;;11.40;10.10;;;;;;;24.23;57.22;100304.79;117023;1188;23529;-66
2022/08/07 04:13:11;;;;;;;;;;;;;;;24.37;57.08;100306.36;116903;1186;23654;-61
2022/08/07 04:15:41;;;;;;;11.60;9.40;;;;;;;24.49;56.98;100302.77;117043;1188;21858;-61
2022/08/07 04:18:11;;;;;;;11.80;9.70;;;;;;;24.59;56.83;100302.10;116850;1187;23630;-62
2022/08/07 04:20:58;;;;;;;10.80;9.80;;;;;;;24.70;56.73;100305.64;116970;1189;23451;-61
2022/08/07 04:23:26;;;;;;;13.90;10.00;;;;;;;24.81;56.65;100308.96;117009;1189;22928;-61
2022/08/07 04:26:13;;;;;;;10.30;9.30;;;;;;;24.95;56.65;100306.89;117027;1188;23638;-62
2022/08/07 04:28:43;;;;;;;12.20;9.60;;;;;;;25.07;56.50;100304.34;116931;1184;23469;-63
2022/08/07 04:31:10;;;;;;;10.60;9.30;;;;;;;25.19;56.43;100307.61;117140;1186;22925;-66
2022/08/07 04:33:57;;;;;;;10.10;9.20;;;;;;;25.31;56.34;100304.55;117019;1189;21884;-61
2022/08/07 04:36:24;;;;;;;11.30;9.20;;;;;;;25.41;56.31;100302.55;117062;1188;21869;-61
2022/08/07 04:38:52;;;;;;;10.80;9.60;;;;;;;25.52;56.07;100298.52;117036;1188;23388;-62
2022/08/07 04:41:19;;;;;;;10.70;9.60;;;;;;;25.66;56.06;100297.83;116937;1188;22928;-66
2022/08/07 04:43:49;;;;;;;13.00;10.20;;;;;;;25.78;55.94;100302.62;117022;1187;21914;-65
2022/08/07 04:46:48;;;;;;;12.60;9.40;;;;;;;25.89;55.85;100301.79;117023;1186;22627;-66
2022/08/07 04:49:43;;;;;;;13.80;10.50;;;;;;;26.03;55.67;100302.89;117050;1190;21857;-65
2022/08/07 04:52:43;;;;;;;15.00;9.60;;;;;;;26.18;55.61;100309.79;117021;1188;23027;-66
2022/08/07 04:55:29;;;;;;;13.10;9.70;;;;;;;26.30;55.56;100310.33;116995;1188;21853;-66
2022/08/07 04:58:29;;;;;;;10.70;9.40;;;;;;;26.42;55.44;100306.85;117043;1183;22626;-66
2022/08/07 05:01:36;;;;;;;11.70;10.40;;;;;;;26.58;55.39;100309.31;116903;1186;23667;-66
2022/08/07 05:04:42;;;;;;;13.50;10.40;;;;;;;26.76;55.06;100308.97;117086;1185;22037;-62
2022/08/07 05:07:37;;;;;;;10.70;9.20;;;;;;;26.94;54.86;100310.63;116978;1191;21867;-66
2022/08/07 05:10:20;;;;;;;11.00;9.90;;;;;;;27.08;54.98;100310.16;117009;1188;22928;-62
2022/08/07 05:12:51;;;;;;;10.80;9.70;;;;;;;27.21;54.86;100314.12;117057;1188;21858;-62
2022/08/07 05:15:26;;;;;;;10.50;9.10;;;;;;;27.41;54.74;100317.65;117019;1188;22901;-66
2022/08/07 05:17:56;;;;;;;;;;;;;;;27.56;54.44;100318.05;116950;1186;23458;-62
2022/08/07 05:20:26;;;;;;;10.60;9.50;;;;;;;27.81;54.31;100318.45;117022;1188;22925;-66
2022/08/07 05:22:55;;;;;;;11.40;10.30;;;;;;;27.94;53.92;100321.14;117021;1187;23045;-62
2022/08/07 05:25:22;;;;;;;10.30;9.10;;;;;;;28.03;53.90;100320.19;117018;1186;23618;-67
2022/08/07 05:28:03;;;;;;;;;;;;;;;28.17;53.98;100321.14;116923;1184;22244;-63
2022/08/07 05:30:49;;;;;;;11.80;9.40;;;;;;;28.36;53.85;100321.86;116892;1188;21861;-62
2022/08/07 05:33:18;;;;;;;15.70;10.40;;;;;;;28.54;53.62;100317.56;116957;1189;22323;-62
2022/08/07 05:35:51;;;;;;;14.20;10.00;;;;;;;28.71;53.44;100319.85;116902;1189;21964;-62
2022/08/07 05:38:19;;;;;;;13.90;10.60;;;;;;;28.81;53.33;100320.27;116914;1187;23035;-63
2022/08/07 05:41:06;;;;;;;12.30;10.80;;;;;;;28.96;53.07;100325.77;116968;1186;21873;-63
2022/08/07 05:43:43;;;;;;;11.20;9.50;;;;;;;29.47;53.71;100329.09;116932;1187;22085;-63
2022/08/07 05:46:29;;;;;;;10.10;8.90;;;;;;;29.57;53.15;100332.70;116947;1186;21878;-67
2022/08/07 05:48:56;;;;;;;9.30;8.20;;;;;;;29.66;52.76;100330.23;116969;1186;23704;-67
2022/08/07 05:51:25;;;;;;;9.40;7.80;;;;;;;29.86;52.41;100329.63;117019;1183;21912;-67
2022/08/07 05:54:02;;;;;;;9.10;8.20;;;;;;;30.05;52.30;100328.18;116944;1187;23001;-63
2022/08/07 05:56:49;;;;;;;9.50;8.50;;;;;;;30.44;52.28;100329.73;116907;1186;22046;-63
2022/08/07 05:59:18;;;;;;;10.10;8.40;;;;;;;30.50;51.89;100331.13;116839;1191;22957;-60
2022/08/07 06:01:47;;;;;;;13.50;8.00;;;;;;;30.62;51.73;100333.64;117052;1183;22816;-61
2022/08/07 06:04:14;;;;;;;9.70;7.90;;;;;;;30.79;51.52;100327.80;116822;1189;22931;-65
2022/08/07 06:06:43;;;;;;;9.10;8.10;;;;;;;30.95;51.36;100329.13;116881;1187;21880;-67
2022/08/07 06:09:14;;;;;;;10.10;8.10;;;;;;;31.10;51.12;100328.93;116820;1189;23618;-68
2022/08/07 06:11:41;;;;;;;10.30;7.80;;;;;;;31.26;50.63;100330.43;116954;1188;23468;-68
2022/08/07 06:14:08;;;;;;;8.40;7.40;;;;;;;31.66;51.02;100328.70;116882;1186;23614;-67
2022/08/07 06:16:46;;;;;;;8.60;7.70;;;;;;;31.68;50.14;100329.27;116892;1188;21859;-68
2022/08/07 06:19:21;;;;;;;8.60;7.40;;;;;;;31.69;50.01;100333.45;116840;1187;21858;-63
2022/08/07 06:22:08;;;;;;;12.20;8.40;;;;;;;31.81;50.02;100331.79;116807;1186;21899;-64
2022/08/07 06:24:45;;;;;;;8.80;7.90;;;;;;;31.96;50.11;100332.43;117003;1186;23469;-64
2022/08/07 06:27:24;;;;;;;20.00;8.70;;;;;;;32.17;50.02;100332.70;116837;1189;23020;-63
2022/08/07 06:30:11;;;;;;;40.30;10.10;;;;;;;32.51;50.55;100333.19;116758;1186;22980;-66
2022/08/07 06:32:59;;;;;;;30.60;9.30;;;;;;;32.79;49.95;100331.49;116843;1185;22533;-66
2022/08/07 06:35:27;;;;;;;21.40;9.20;;;;;;;32.96;49.53;100330.10;117011;1188;21861;-66
2022/08/07 06:38:11;;;;;;;119.20;17.90;;;;;;;33.23;49.12;100329.61;116967;1188;21979;-68
2022/08/07 06:40:48;;;;;;;24.50;8.30;;;;;;;33.41;48.24;100326.67;116972;1186;23539;-60
2022/08/07 06:43:17;;;;;;;22.50;7.70;;;;;;;33.50;48.15;100325.31;116988;1188;23567;-60
2022/08/07 06:45:47;;;;;;;18.60;7.60;;;;;;;33.56;48.07;100321.01;116770;1189;21858;-60
2022/08/07 06:48:14;;;;;;;18.20;8.40;;;;;;;33.65;47.96;100319.52;116899;1185;21911;-60
2022/08/07 06:50:52;;;;;;;21.70;7.80;;;;;;;33.81;47.93;100316.46;116867;1185;23454;-60
2022/08/07 06:53:20;;;;;;;16.50;7.40;;;;;;;34.00;47.57;100316.89;117007;1187;23715;-60
2022/08/07 06:56:08;;;;;;;11.20;6.90;;;;;;;34.20;47.29;100316.29;117001;1189;22991;-61
2022/08/07 06:58:41;;;;;;;9.20;6.30;;;;;;;34.34;46.72;100316.73;116887;1188;21898;-61
2022/08/07 07:01:28;;;;;;;11.90;6.40;;;;;;;34.51;46.60;100316.23;116958;1188;23682;-71
2022/08/07 07:04:10;;;;;;;11.30;6.00;;;;;;;34.62;46.37;100316.77;116860;1188;21913;-70
2022/08/07 07:06:57;;;;;;;8.10;5.70;;;;;;;34.72;45.82;100317.54;116861;1188;21880;-61
2022/08/07 07:09:28;;;;;;;8.50;5.80;;;;;;;34.90;45.67;100313.58;116968;1188;22289;-61
2022/08/07 07:12:06;;;;;;;9.70;6.00;;;;;;;35.12;45.55;100313.17;116979;1188;23631;-61
2022/08/07 07:14:47;;;;;;;;;;;;;;;35.35;45.26;100312.52;116904;1188;21838;-60
2022/08/07 07:17:24;;;;;;;7.30;4.70;;;;;;;35.54;44.89;100309.80;116952;1187;21862;-59
2022/08/07 07:20:14;;;;;;;6.20;4.70;;;;;;;35.73;44.05;100312.66;116850;1188;22002;-60
2022/08/07 07:22:41;;;;;;;5.20;4.60;;;;;;;35.93;44.33;100312.43;116759;1189;21862;-60
2022/08/07 07:25:28;;;;;;;4.90;4.30;;;;;;;36.14;43.68;100312.84;116846;1185;22736;-60
2022/08/07 07:28:18;;;;;;;6.60;4.00;;;;;;;36.39;43.55;100312.30;116885;1188;21848;-59
2022/08/07 07:31:19;;;;;;;7.00;3.90;;;;;;;36.61;43.25;100315.60;116949;1188;21881;-60
2022/08/07 07:33:48;;;;;;;5.30;3.90;;;;;;;36.82;42.98;100319.59;116980;1189;21858;-59
2022/08/07 07:36:24;;;;;;;6.60;3.60;;;;;;;37.09;42.84;100320.33;116998;1188;22973;-59
2022/08/07 07:39:03;;;;;;;7.50;3.80;;;;;;;37.34;42.35;100322.00;116953;1188;23599;-60
2022/08/07 07:41:36;;;;;;;4.20;3.80;;;;;;;37.53;42.09;100324.55;116958;1188;22714;-61
2022/08/07 07:44:23;;;;;;;3.90;3.50;;;;;;;37.65;41.97;100322.92;116644;1190;23024;-60
2022/08/07 07:46:52;;;;;;;4.60;3.50;;;;;;;37.76;41.29;100317.98;116998;1188;22177;-59
2022/08/07 07:49:31;;;;;;;5.20;3.70;;;;;;;37.87;40.82;100316.20;116758;1187;22337;-60
2022/08/07 07:52:20;;;;;;;5.80;3.50;;;;;;;38.02;40.84;100319.58;116983;1186;21855;-69
2022/08/07 07:54:49;;;;;;;6.60;3.50;;;;;;;38.23;40.78;100319.91;116935;1188;22928;-68
2022/08/07 07:57:20;;;;;;;5.90;3.40;;;;;;;38.50;40.50;100324.12;116833;1190;22063;-68
2022/08/07 08:00:08;;;;;;;8.30;3.20;;;;;;;38.77;40.26;100321.83;116975;1188;23472;-69
2022/08/07 08:02:35;;;;;;;7.30;3.10;;;;;;;38.95;39.80;100320.76;116825;1189;22844;-67
2022/08/07 08:05:03;;;;;;;5.10;2.70;;;;;;;39.07;39.64;100321.38;116797;1186;23449;-59
2022/08/07 08:07:31;;;;;;;4.80;2.90;;;;;;;39.20;38.83;100317.15;116936;1187;23702;-69
2022/08/07 08:10:08;;;;;;;5.60;3.20;;;;;;;39.44;38.96;100317.88;116809;1185;23047;-70
2022/08/07 08:12:40;;;;;;;8.30;3.20;;;;;;;39.67;38.96;100321.98;116983;1188;21985;-63
2022/08/07 08:15:30;;;;;;;6.40;2.80;;;;;;;39.95;38.39;100319.84;116975;1188;21855;-69
2022/08/07 08:18:18;;;;;;;6.20;3.00;;;;;;;40.25;38.07;100321.91;116934;1191;22931;-70
2022/08/07 08:20:46;;;;;;;4.60;3.10;;;;;;;40.49;37.42;100322.09;116987;1188;22466;-70
2022/08/07 08:28:52;;;;;;;;;;;;;;;41.22;36.09;100318.70;116899;1188;21842;-69
2022/08/07 08:31:22;;;;;;;3.90;2.80;;;;;;;41.35;36.45;100319.57;117056;1188;21856;-69
2022/08/07 08:34:09;;;;;;;8.50;2.60;;;;;;;41.49;36.07;100315.94;116966;1189;22948;-68
2022/08/07 08:36:54;;;;;;;5.20;3.00;;;;;;;41.65;35.96;100317.52;116815;1191;22098;-69
2022/08/07 08:39:24;;;;;;;6.00;3.00;;;;;;;41.76;35.68;100312.73;116947;1188;21857;-68
2022/08/07 08:42:10;;;;;;;5.30;2.80;;;;;;;41.88;35.50;100317.58;116863;1188;22914;-61
2022/08/07 08:45:07;;;;;;;10.00;2.80;;;;;;;41.97;35.05;100313.05;116965;1188;22925;-70
2022/08/07 08:48:07;;;;;;;6.70;2.20;;;;;;;42.17;34.78;100314.88;116957;1186;23900;-69
2022/08/07 08:50:39;;;;;;;5.30;2.40;;;;;;;42.34;34.44;100309.36;116958;1185;23727;-62
2022/08/07 08:53:29;;;;;;;3.90;2.60;;;;;;;42.46;34.15;100314.56;116853;1189;22930;-66
2022/08/07 08:56:01;;;;;;;3.60;2.60;;;;;;;42.55;33.70;100309.04;116914;1187;21898;-62
2022/08/07 08:58:48;;;;;;;3.70;2.70;;;;;;;42.59;33.96;100304.61;116993;1188;22114;-62
2022/08/07 09:01:21;;;;;;;3.10;2.30;;;;;;;42.65;33.42;100303.91;117028;1188;22638;-71
2022/08/07 09:04:15;;;;;;;4.00;2.90;;;;;;;42.77;32.86;100305.21;117024;1188;22999;-62
2022/08/07 09:07:02;;;;;;;7.50;2.40;;;;;;;42.94;32.90;100303.11;116991;1188;21854;-70
2022/08/07 09:09:53;;;;;;;5.50;2.40;;;;;;;43.08;32.89;100302.63;116945;1187;21888;-70
2022/08/07 09:12:26;;;;;;;5.10;2.70;;;;;;;43.18;32.44;100301.45;117064;1185;23303;-62
2022/08/07 09:15:28;;;;;;;7.00;1.90;;;;;;;43.25;32.17;100299.70;117099;1185;21857;-69
2022/08/07 09:18:26;;;;;;;6.70;2.70;;;;;;;43.34;31.42;100301.55;116942;1188;21854;-64
2022/08/07 09:21:05;;;;;;;3.10;2.30;;;;;;;43.44;31.89;100299.56;117109;1187;21867;-72
2022/08/07 09:24:08;;;;;;;4.40;2.30;;;;;;;43.53;29.38;100293.23;116942;1187;21878;-71
2022/08/07 09:26:57;;;;;;;4.00;1.80;;;;;;;43.62;30.74;100296.52;117000;1185;21903;-72
2022/08/07 09:29:38;;;;;;;5.80;1.80;;;;;;;43.79;30.62;100298.02;117072;1183;21865;-62
2022/08/07 09:32:28;;;;;;;3.20;1.80;;;;;;;43.96;29.67;100294.49;117018;1184;22229;-62
2022/08/07 09:35:24;;;;;;;2.00;1.70;;;;;;;43.96;28.98;100291.80;117142;1190;21877;-71
2022/08/07 09:38:45;;;;;;;6.90;1.70;;;;;;;44.04;29.40;100288.00;116965;1189;23557;-71
2022/08/07 09:41:45;;;;;;;4.70;1.70;;;;;;;44.19;28.53;100291.92;116848;1187;21857;-71
2022/08/07 09:44:47;;;;;;;4.40;2.40;;;;;;;44.30;29.37;100290.71;117095;1189;21858;-72
2022/08/07 09:47:45;;;;;;;8.10;2.20;;;;;;;44.39;28.86;100282.94;117076;1188;23249;-65
2022/08/07 09:50:35;;;;;;;3.20;1.70;;;;;;;44.41;28.46;100294.70;117005;1188;21875;-67
2022/08/07 09:53:07;;;;;;;3.60;2.00;;;;;;;44.52;28.49;100290.56;117075;1187;21876;-63
2022/08/07 09:56:09;;;;;;;2.30;1.80;;;;;;;44.60;28.50;100285.66;117096;1185;23072;-71
2022/08/07 09:59:07;;;;;;;3.40;1.70;;;;;;;44.75;27.57;100288.10;117032;1188;21858;-64
2022/08/07 10:01:46;;;;;;;4.60;1.80;;;;;;;44.85;27.44;100286.13;117009;1188;21877;-70
2022/08/07 10:04:44;;;;;;;3.20;1.90;;;;;;;44.97;28.25;100285.90;117058;1188;21895;-69
2022/08/07 10:07:52;;;;;;;4.70;1.80;;;;;;;45.09;27.69;100285.22;117006;1188;21866;-63
2022/08/07 10:10:29;;;;;;;3.80;2.00;;;;;;;45.16;27.84;100284.95;117066;1187;22992;-62
2022/08/07 10:13:43;;;;;;;2.80;1.90;;;;;;;45.26;27.67;100289.96;117041;1188;22861;-69
2022/08/07 10:16:47;;;;;;;2.40;1.50;;;;;;;45.37;27.22;100286.88;117001;1187;21863;-68
2022/08/07 10:19:30;;;;;;;6.70;1.70;;;;;;;45.52;27.05;100279.92;117140;1186;21907;-62
2022/08/07 10:22:42;;;;;;;4.20;1.90;;;;;;;45.70;27.11;100276.33;117010;1185;22108;-69
2022/08/07 10:25:33;;;;;;;3.20;2.00;;;;;;;45.63;24.88;100274.20;116997;1184;22928;-66
2022/08/07 10:28:43;;;;;;;3.10;1.70;;;;;;;45.51;26.25;100273.19;116940;1189;23462;-63
2022/08/07 10:31:47;;;;;;;7.40;2.10;;;;;;;45.64;26.05;100269.90;116960;1188;22163;-67
2022/08/07 10:34:43;;;;;;;3.80;1.90;;;;;;;45.79;26.40;100270.67;117028;1188;21882;-69
2022/08/07 10:37:46;;;;;;;6.00;2.10;;;;;;;45.89;26.17;100269.80;117076;1187;23576;-63
2022/08/07 10:40:49;;;;;;;4.10;1.90;;;;;;;45.98;25.92;100265.48;117027;1185;23060;-62
2022/08/07 10:43:27;;;;;;;5.80;1.80;;;;;;;46.11;25.99;100271.94;117061;1187;21827;-62
2022/08/07 10:46:06;;;;;;;3.90;1.70;;;;;;;46.04;25.76;100270.73;117174;1186;22661;-68
2022/08/07 10:48:47;;;;;;;5.50;1.70;;;;;;;45.68;24.98;100262.88;117072;1190;21848;-62
2022/08/07 10:51:21;;;;;;;4.40;2.00;;;;;;;45.20;25.27;100263.68;116990;1189;22626;-68
2022/08/07 10:54:19;;;;;;;8.30;2.00;;;;;;;44.80;25.23;100265.22;116992;1185;21966;-62
2022/08/07 10:56:49;;;;;;;3.80;2.00;;;;;;;44.58;25.24;100269.10;117089;1188;21855;-62
2022/08/07 10:59:54;;;;;;;2.30;1.60;;;;;;;44.33;25.25;100267.37;117069;1185;22823;-62
2022/08/07 11:02:32;;;;;;;3.50;2.10;;;;;;;43.85;25.43;100262.08;116968;1188;21885;-68
2022/08/07 11:05:17;;;;;;;3.50;1.90;;;;;;;43.42;25.40;100251.11;116988;1188;22932;-68
2022/08/07 11:08:14;;;;;;;2.20;1.40;;;;;;;43.28;25.55;100252.59;117006;1188;21891;-68
2022/08/07 11:10:45;;;;;;;2.00;1.40;;;;;;;43.41;25.61;100244.83;116911;1187;21866;-68
2022/08/07 11:13:37;;;;;;;4.00;1.90;;;;;;;43.66;25.47;100242.58;117000;1188;22928;-62
2022/08/07 11:16:37;;;;;;;3.10;1.60;;;;;;;44.06;25.07;100241.55;116935;1188;21847;-68
2022/08/07 11:19:23;;;;;;;5.80;1.90;;;;;;;44.34;24.89;100243.79;117072;1187;22650;-62
2022/08/07 11:22:12;;;;;;;3.00;1.70;;;;;;;44.51;24.54;100243.72;117018;1188;24165;-63
2022/08/07 11:25:04;;;;;;;3.70;2.00;;;;;;;44.42;24.22;100241.45;116923;1184;23005;-68
2022/08/07 11:27:57;;;;;;;3.60;1.90;;;;;;;44.07;24.08;100241.79;117019;1188;23455;-69
2022/08/07 11:30:33;;;;;;;3.40;1.80;;;;;;;43.63;24.21;100240.27;117003;1185;22957;-68
2022/08/07 11:33:22;;;;;;;2.70;1.50;;;;;;;43.36;24.49;100235.11;116987;1187;21857;-62
2022/08/07 11:36:17;;;;;;;4.80;1.70;;;;;;;43.15;23.99;100231.00;116975;1188;21887;-62
2022/08/07 11:39:08;;;;;;;2.90;1.70;;;;;;;43.00;24.16;100233.28;117035;1188;22932;-62
2022/08/07 11:41:56;;;;;;;2.50;1.60;;;;;;;42.93;24.55;100233.55;117031;1186;22928;-62
2022/08/07 11:44:41;;;;;;;7.20;1.80;;;;;;;42.76;24.51;100240.05;116999;1188;22932;-63
2022/08/07 11:47:37;;;;;;;3.60;1.50;;;;;;;42.47;24.42;100238.58;116947;1187;21848;-63
2022/08/07 11:50:33;;;;;;;4.80;1.60;;;;;;;42.18;24.49;100234.27;117035;1185;22935;-63
2022/08/07 11:53:38;;;;;;;3.10;1.70;;;;;;;42.11;24.64;100230.21;117007;1189;21894;-63
2022/08/07 11:56:50;;;;;;;6.40;1.70;;;;;;;42.36;24.33;100218.61;117042;1189;21858;-63
2022/08/07 11:59:42;;;;;;;3.80;1.60;;;;;;;42.73;24.14;100216.17;116996;1190;21885;-69
2022/08/07 12:02:54;;;;;;;3.50;1.50;;;;;;;43.15;23.98;100204.02;117222;1186;21865;-71
2022/08/07 12:05:34;;;;;;;4.20;1.80;;;;;;;43.60;23.36;100201.89;117385;1187;21848;-63
2022/08/07 12:08:24;;;;;;;5.40;1.70;;;;;;;43.97;23.32;100206.73;116899;1189;23579;-63
2022/08/07 12:11:14;;;;;;;2.50;1.60;;;;;;;44.19;23.34;100204.35;116973;1188;22879;-62
2022/08/07 12:14:01;;;;;;;3.70;1.90;;;;;;;44.27;23.24;100205.41;116975;1187;22549;-69
2022/08/07 12:16:30;;;;;;;4.40;2.10;;;;;;;44.31;23.10;100201.86;117000;1187;22631;-62